Rio Blanco — D5BO9 — position and weather

sailwx.info

Track history (hours):
 
Tides and Currents Weather Stations Pressure Air Temp Water Temp Dewpoint Dewpoint Depression Visibility Wind Speed Wind Dir Waves Ship Positions

Rio Blanco

Last reported at 2014-Oct-21 00:00 UTC. Time now 2014-Oct-25 06:19 UTC.
Position N 22°30' E 038°00'.

Length 286 m; draft 12.6 m.

Type: Ship (hazmat cat A). MMSI: 636092395.

Wind from 340 at 7 knots

Waves 0.5 meters (2 feet), 16 second period

Barometer 1011.0 mb
Air temperature 28.0 ° C
Visibility: greater than 10.8 NM
Dewpoint 23.2 ° C
Water temperature 33.0 ° C

Date/timePositionNaut miles runAvg speedWind from/ knotsBaromVisibWave heightAir tempDewpointWater temp
2014-Oct-21 00:00N 22°30' E 038°00'   340 / 71011.010.8 0.528.023.233.0
2014-Oct-18 14:33N 31°35' E 032°08'3115.4
2014-Oct-18 12:33N 31°53' E 031°39'11015.6
2014-Oct-18 05:32N 32°28' E 029°36'9417.0
2014-Oct-18 00:00N 32°54' E 027°48'30515.7 290 / 161018.010.8 1.025.020.725.0
2014-Oct-17 04:33N 34°36' E 022°02'1515.4
2014-Oct-17 03:33N 34°41' E 021°44'1515.4
2014-Oct-17 02:33N 34°46' E 021°26'1515.3
2014-Oct-17 01:33N 34°51' E 021°09'1515.1
2014-Oct-17 00:33N 34°56' E 020°51'1515.4
2014-Oct-16 23:33N 35°01' E 020°34'1815.4
2014-Oct-16 22:25N 35°07' E 020°13'1315.5
2014-Oct-16 21:33N 35°11' E 019°58'3115.3
2014-Oct-16 19:32N 35°21' E 019°22'14415.5
2014-Oct-16 10:16N 36°07' E 016°34'7915.7
2014-Oct-16 05:12N 36°31' E 015°00'1117.0
2014-Oct-16 04:33N 36°35' E 014°47'1817.6
2014-Oct-16 03:33N 36°41' E 014°27'1818.5
2014-Oct-16 02:33N 36°50' E 014°06'1918.6
2014-Oct-16 01:33N 36°59' E 013°46'25717.1
2014-Oct-15 10:33N 39°11' E 009°06'2 2.0
2014-Oct-15 09:33N 39°13' E 009°04'0 0.0
2014-Oct-15 08:33N 39°13' E 009°04'0 0.0
2014-Oct-15 07:33N 39°13' E 009°04'0 0.0
2014-Oct-15 06:33N 39°13' E 009°04'0 0.0
2014-Oct-15 05:33N 39°13' E 009°04'0 0.0
2014-Oct-15 04:33N 39°13' E 009°04'0 0.0
2014-Oct-15 03:33N 39°13' E 009°04'0 0.0
2014-Oct-15 02:33N 39°13' E 009°04'0 0.0
2014-Oct-15 01:33N 39°13' E 009°04'0 0.0
2014-Oct-15 00:33N 39°13' E 009°04'0 0.0
2014-Oct-14 23:33N 39°13' E 009°04'0 0.0
2014-Oct-14 22:33N 39°13' E 009°04'0 0.0
2014-Oct-14 21:33N 39°13' E 009°04'0 0.0
2014-Oct-14 20:33N 39°13' E 009°04'0 0.0
2014-Oct-14 19:33N 39°13' E 009°04'0 0.0
2014-Oct-14 18:33N 39°13' E 009°04'0 0.0
2014-Oct-14 17:33N 39°13' E 009°04'0 0.0
2014-Oct-14 16:34N 39°13' E 009°04'1 0.6
2014-Oct-14 15:34N 39°13' E 009°04'7 7.2
2014-Oct-14 14:33N 39°06' E 009°06'1413.6
2014-Oct-14 13:33N 38°53' E 009°01'1414.0
2014-Oct-14 12:33N 38°45' E 008°47'1716.2
2014-Oct-14 11:31N 38°40' E 008°26'1717.5
2014-Oct-14 10:30N 38°35' E 008°04'65717.3
2014-Oct-12 20:32N 35°59' W 005°18'225 6.4
2014-Oct-11 09:31N 37°15' W 009°42'1415.0
2014-Oct-11 08:33N 37°29' W 009°46'2020.2
2014-Oct-11 07:33N 37°48' W 009°52'1313.2
2014-Oct-11 06:33N 38°01' W 009°56'2612.6
2014-Oct-11 04:29N 38°27' W 010°03'  
Track history (hours):
 
Tides and Currents Weather Stations Pressure Air Temp Water Temp Dewpoint Dewpoint Depression Visibility Wind Speed Wind Dir Waves Ship Positions

Rio Blanco

Last reported at 2014-Oct-21 00:00 UTC. Time now 2014-Oct-25 06:19 UTC.
Position N 22°30' E 038°00'.

Length 286 m; draft 12.6 m.

Type: Ship (hazmat cat A). MMSI: 636092395.

Wind from 340 at 7 knots

Waves 0.5 meters (2 feet), 16 second period

Barometer 1011.0 mb
Air temperature 28.0 ° C
Visibility: greater than 10.8 NM
Dewpoint 23.2 ° C
Water temperature 33.0 ° C

Date/timePositionNaut miles runAvg speedWind from/ knotsBaromVisibWave heightAir tempDewpointWater temp
2014-Oct-21 00:00N 22°30' E 038°00'   340 / 71011.010.8 0.528.023.233.0
2014-Oct-18 14:33N 31°35' E 032°08'3115.4
2014-Oct-18 12:33N 31°53' E 031°39'11015.6
2014-Oct-18 05:32N 32°28' E 029°36'9417.0
2014-Oct-18 00:00N 32°54' E 027°48'30515.7 290 / 161018.010.8 1.025.020.725.0
2014-Oct-17 04:33N 34°36' E 022°02'1515.4
2014-Oct-17 03:33N 34°41' E 021°44'1515.4
2014-Oct-17 02:33N 34°46' E 021°26'1515.3
2014-Oct-17 01:33N 34°51' E 021°09'1515.1
2014-Oct-17 00:33N 34°56' E 020°51'1515.4
2014-Oct-16 23:33N 35°01' E 020°34'1815.4
2014-Oct-16 22:25N 35°07' E 020°13'1315.5
2014-Oct-16 21:33N 35°11' E 019°58'3115.3
2014-Oct-16 19:32N 35°21' E 019°22'14415.5
2014-Oct-16 10:16N 36°07' E 016°34'7915.7
2014-Oct-16 05:12N 36°31' E 015°00'1117.0
2014-Oct-16 04:33N 36°35' E 014°47'1817.6
2014-Oct-16 03:33N 36°41' E 014°27'1818.5
2014-Oct-16 02:33N 36°50' E 014°06'1918.6
2014-Oct-16 01:33N 36°59' E 013°46'25717.1
2014-Oct-15 10:33N 39°11' E 009°06'2 2.0
2014-Oct-15 09:33N 39°13' E 009°04'0 0.0
2014-Oct-15 08:33N 39°13' E 009°04'0 0.0
2014-Oct-15 07:33N 39°13' E 009°04'0 0.0
2014-Oct-15 06:33N 39°13' E 009°04'0 0.0
2014-Oct-15 05:33N 39°13' E 009°04'0 0.0
2014-Oct-15 04:33N 39°13' E 009°04'0 0.0
2014-Oct-15 03:33N 39°13' E 009°04'0 0.0
2014-Oct-15 02:33N 39°13' E 009°04'0 0.0
2014-Oct-15 01:33N 39°13' E 009°04'0 0.0
2014-Oct-15 00:33N 39°13' E 009°04'0 0.0
2014-Oct-14 23:33N 39°13' E 009°04'0 0.0
2014-Oct-14 22:33N 39°13' E 009°04'0 0.0
2014-Oct-14 21:33N 39°13' E 009°04'0 0.0
2014-Oct-14 20:33N 39°13' E 009°04'0 0.0
2014-Oct-14 19:33N 39°13' E 009°04'0 0.0
2014-Oct-14 18:33N 39°13' E 009°04'0 0.0
2014-Oct-14 17:33N 39°13' E 009°04'0 0.0
2014-Oct-14 16:34N 39°13' E 009°04'1 0.6
2014-Oct-14 15:34N 39°13' E 009°04'7 7.2
2014-Oct-14 14:33N 39°06' E 009°06'1413.6
2014-Oct-14 13:33N 38°53' E 009°01'1414.0
2014-Oct-14 12:33N 38°45' E 008°47'1716.2
2014-Oct-14 11:31N 38°40' E 008°26'1717.5
2014-Oct-14 10:30N 38°35' E 008°04'65717.3
2014-Oct-12 20:32N 35°59' W 005°18'225 6.4
2014-Oct-11 09:31N 37°15' W 009°42'1415.0
2014-Oct-11 08:33N 37°29' W 009°46'2020.2
2014-Oct-11 07:33N 37°48' W 009°52'1313.2
2014-Oct-11 06:33N 38°01' W 009°56'2612.6
2014-Oct-11 04:29N 38°27' W 010°03'  

Dump ship's entire track history